createdAt,value
2023-01-06T00:00:43.973Z,93.41
2023-01-06T00:03:12.252Z,93.49
2023-01-06T00:05:40.431Z,93.60
2023-01-06T00:08:08.429Z,93.77
2023-01-06T00:10:37.915Z,93.89
2023-01-06T00:13:07.213Z,93.96
2023-01-06T00:15:38.052Z,93.96
2023-01-06T00:18:06.205Z,93.95
2023-01-06T00:20:34.688Z,93.96
2023-01-06T00:23:02.673Z,94.05
2023-01-06T00:25:30.857Z,93.95
2023-01-06T00:27:59.066Z,93.93
2023-01-06T00:30:28.415Z,93.98
2023-01-06T00:32:56.936Z,94.01
2023-01-06T00:35:24.951Z,93.93
2023-01-06T00:37:52.927Z,93.89
2023-01-06T00:40:21.016Z,93.86
2023-01-06T00:42:49.015Z,93.83
2023-01-06T00:45:17.345Z,93.72
2023-01-06T00:47:46.689Z,93.66
2023-01-06T00:50:14.819Z,93.69
2023-01-06T00:52:42.994Z,93.58
2023-01-06T00:55:11.387Z,93.50
2023-01-06T00:57:40.776Z,93.42
2023-01-06T01:00:10.483Z,93.41
2023-01-06T01:02:38.616Z,93.43
2023-01-06T01:05:08.779Z,93.20
2023-01-06T01:07:37.086Z,93.01
2023-01-06T01:10:05.644Z,92.86
2023-01-06T01:12:33.599Z,92.67
2023-01-06T01:15:01.825Z,92.50
2023-01-06T01:17:31.379Z,92.25
2023-01-06T01:20:00.967Z,91.99
2023-01-06T01:22:31.936Z,91.84
2023-01-06T01:24:59.913Z,91.77
2023-01-06T01:27:28.186Z,91.59
2023-01-06T01:29:56.163Z,91.53
2023-01-06T01:32:24.206Z,91.26
2023-01-06T01:34:52.164Z,91.02
2023-01-06T01:37:20.210Z,90.77
2023-01-06T01:39:49.720Z,90.58
2023-01-06T01:42:19.586Z,90.40
2023-01-06T01:45:01.981Z,89.97
2023-01-06T01:47:31.705Z,89.84
2023-01-06T01:50:01.582Z,89.76
2023-01-06T01:52:29.732Z,89.82
2023-01-06T01:54:59.222Z,89.77
2023-01-06T01:57:32.603Z,89.65
2023-01-06T02:00:01.456Z,89.49
2023-01-06T02:02:31.234Z,89.71
2023-01-06T02:05:00.246Z,89.97
2023-01-06T02:07:28.464Z,89.92
2023-01-06T02:10:03.728Z,90.15
2023-01-06T02:12:31.906Z,90.49
2023-01-06T02:14:59.960Z,90.73
2023-01-06T02:17:50.801Z,90.75
2023-01-06T02:20:28.803Z,90.89
2023-01-06T02:23:31.981Z,91.21
2023-01-06T02:26:41.346Z,91.40
2023-01-06T02:29:43.105Z,91.24
2023-01-06T02:32:23.302Z,91.38
2023-01-06T02:34:59.593Z,91.45
2023-01-06T02:37:39.746Z,91.56
2023-01-06T02:40:22.148Z,91.72
2023-01-06T02:42:52.967Z,92.05
2023-01-06T02:45:24.099Z,92.25
2023-01-06T02:47:59.272Z,92.40
2023-01-06T02:50:33.980Z,92.64
2023-01-06T02:53:07.753Z,92.74
2023-01-06T02:55:38.134Z,92.88
2023-01-06T02:58:08.143Z,92.95
2023-01-06T03:00:37.710Z,93.11
2023-01-06T03:03:11.144Z,93.23
2023-01-06T03:05:39.466Z,93.33
2023-01-06T03:08:10.177Z,93.38
2023-01-06T03:10:39.195Z,93.44
2023-01-06T03:13:12.032Z,93.50
2023-01-06T03:15:40.215Z,93.37
2023-01-06T03:18:09.640Z,93.43
2023-01-06T03:20:37.725Z,93.49
2023-01-06T03:23:06.149Z,93.59
2023-01-06T03:25:34.216Z,93.62
2023-01-06T03:28:02.338Z,93.61
2023-01-06T03:30:35.217Z,93.69
2023-01-06T03:33:08.399Z,93.73
2023-01-06T03:35:57.592Z,93.71
2023-01-06T03:38:33.409Z,93.75
2023-01-06T03:41:06.384Z,93.80
2023-01-06T03:43:37.933Z,93.85
2023-01-06T03:46:18.390Z,93.89
2023-01-06T03:48:54.284Z,93.94
2023-01-06T03:51:32.322Z,93.96
2023-01-06T03:54:04.892Z,94.01
2023-01-06T03:56:37.592Z,94.00
2023-01-06T03:59:07.893Z,94.06
2023-01-06T04:01:36.333Z,94.12
2023-01-06T04:04:04.727Z,94.15
2023-01-06T04:06:34.176Z,94.17
2023-01-06T04:09:02.253Z,94.22
2023-01-06T04:11:47.704Z,94.19
2023-01-06T04:14:15.680Z,94.24
2023-01-06T04:16:43.660Z,94.30
2023-01-06T04:19:11.814Z,94.35
2023-01-06T04:21:41.187Z,94.38
2023-01-06T04:24:09.300Z,94.38
2023-01-06T04:26:37.413Z,94.43
2023-01-06T04:29:05.822Z,94.50
2023-01-06T04:31:35.507Z,94.49
2023-01-06T04:34:04.989Z,94.51
2023-01-06T04:36:33.075Z,94.52
2023-01-06T04:39:02.423Z,94.58
2023-01-06T04:41:32.165Z,94.65
2023-01-06T04:44:00.254Z,94.75
2023-01-06T04:46:28.361Z,94.79
2023-01-06T04:48:56.751Z,94.83
2023-01-06T04:51:24.763Z,94.94
2023-01-06T04:53:52.798Z,94.98
2023-01-06T04:56:22.254Z,95.08
2023-01-06T04:58:50.261Z,95.15
2023-01-06T05:01:18.382Z,95.21
2023-01-06T05:03:46.410Z,95.26
2023-01-06T05:06:16.097Z,95.32
2023-01-06T05:08:44.931Z,95.38
2023-01-06T05:11:15.294Z,95.42
2023-01-06T05:13:44.892Z,95.48
2023-01-06T05:16:17.274Z,95.57
2023-01-06T05:18:45.473Z,95.65
2023-01-06T05:21:13.798Z,95.70
2023-01-06T05:23:41.869Z,95.68
2023-01-06T05:26:11.385Z,95.72
2023-01-06T05:28:39.443Z,95.73
2023-01-06T05:31:10.529Z,95.78
2023-01-06T05:33:38.789Z,95.80
2023-01-06T05:36:09.197Z,95.87
2023-01-06T05:38:37.469Z,95.91
2023-01-06T05:41:05.755Z,95.92
2023-01-06T05:43:34.999Z,95.92
2023-01-06T05:46:06.358Z,95.96
2023-01-06T05:48:36.197Z,95.97
2023-01-06T05:51:04.508Z,96.00
2023-01-06T05:53:33.734Z,96.05
2023-01-06T05:56:02.425Z,96.06
2023-01-06T05:58:32.979Z,96.09
2023-01-06T06:01:01.495Z,96.14
2023-01-06T06:03:29.623Z,96.86
2023-01-06T06:06:03.200Z,97.27
2023-01-06T06:08:31.218Z,97.32
2023-01-06T06:11:03.283Z,97.13
2023-01-06T06:13:33.509Z,97.08
2023-01-06T06:16:06.343Z,96.96
2023-01-06T06:18:34.584Z,96.97
2023-01-06T06:21:04.849Z,96.73
2023-01-06T06:23:34.836Z,96.63
2023-01-06T06:26:03.154Z,96.82
2023-01-06T06:28:31.252Z,96.79
2023-01-06T06:31:04.820Z,96.69
2023-01-06T06:33:33.388Z,96.51
2023-01-06T06:36:02.333Z,95.95
2023-01-06T06:38:31.737Z,95.60
2023-01-06T06:40:59.813Z,95.59
2023-01-06T06:43:28.209Z,95.62
2023-01-06T06:45:56.256Z,95.75
2023-01-06T06:48:24.233Z,95.84
2023-01-06T06:50:58.477Z,95.98
2023-01-06T06:53:26.829Z,96.09
2023-01-06T06:55:56.569Z,96.20
2023-01-06T06:58:25.418Z,96.30
2023-01-06T07:00:53.728Z,96.38
2023-01-06T07:03:22.913Z,96.42
2023-01-06T07:05:51.910Z,96.53
2023-01-06T07:08:20.276Z,96.58
2023-01-06T07:10:48.292Z,96.61
2023-01-06T07:13:17.614Z,96.67
2023-01-06T07:15:45.926Z,96.75
2023-01-06T07:18:13.925Z,96.83
2023-01-06T07:20:41.939Z,96.87
2023-01-06T07:23:09.944Z,96.91
2023-01-06T07:25:38.120Z,96.93
2023-01-06T07:28:07.190Z,97.05
2023-01-06T07:30:37.440Z,97.06
2023-01-06T07:33:05.712Z,97.11
2023-01-06T07:35:33.692Z,97.12
2023-01-06T07:38:05.478Z,97.16
2023-01-06T07:40:34.125Z,97.18
2023-01-06T07:43:05.316Z,97.21
2023-01-06T07:45:33.536Z,97.25
2023-01-06T07:48:03.182Z,97.29
2023-01-06T07:50:31.991Z,97.30
2023-01-06T07:53:00.737Z,97.36
2023-01-06T07:55:28.922Z,97.35
2023-01-06T07:57:57.219Z,97.38
2023-01-06T08:00:25.290Z,97.38
2023-01-06T08:02:53.507Z,97.42
2023-01-06T08:05:22.838Z,97.46
2023-01-06T08:07:50.855Z,97.49
2023-01-06T08:10:18.922Z,97.49
2023-01-06T08:12:47.038Z,97.55
2023-01-06T08:15:15.010Z,97.54
2023-01-06T08:17:43.133Z,97.55
2023-01-06T08:20:11.372Z,97.51
2023-01-06T08:22:40.713Z,97.56
2023-01-06T08:25:09.687Z,97.58
2023-01-06T08:27:37.754Z,97.63
2023-01-06T08:30:07.032Z,97.63
2023-01-06T08:32:35.027Z,97.66
2023-01-06T08:35:03.400Z,97.67
2023-01-06T08:37:31.496Z,97.66
2023-01-06T08:40:00.995Z,97.66
2023-01-06T08:42:29.171Z,97.67
2023-01-06T08:44:57.307Z,97.70
2023-01-06T08:47:25.298Z,97.68
2023-01-06T08:49:53.231Z,97.72
2023-01-06T08:52:21.305Z,97.68
2023-01-06T08:54:49.363Z,97.70
2023-01-06T08:57:18.663Z,97.70
2023-01-06T08:59:46.651Z,97.70
2023-01-06T09:02:14.648Z,97.68
2023-01-06T09:04:42.738Z,97.68
2023-01-06T09:07:10.892Z,97.66
2023-01-06T09:09:38.940Z,97.63
2023-01-06T09:12:08.119Z,97.67
2023-01-06T09:14:37.516Z,97.65
2023-01-06T09:17:05.517Z,97.65
2023-01-06T09:19:33.539Z,97.65
2023-01-06T09:22:01.470Z,97.65
2023-01-06T09:24:29.523Z,97.63
2023-01-06T09:26:57.482Z,97.64
2023-01-06T09:29:25.954Z,97.63
2023-01-06T09:31:55.624Z,97.60
2023-01-06T09:34:23.705Z,97.66
2023-01-06T09:36:51.776Z,97.64
2023-01-06T09:39:20.227Z,97.66
2023-01-06T09:42:22.130Z,97.62
2023-01-06T09:44:53.814Z,97.58
2023-01-06T09:47:26.358Z,97.57
2023-01-06T09:49:58.318Z,97.57
2023-01-06T09:52:30.200Z,97.58
2023-01-06T09:55:01.318Z,97.58
2023-01-06T09:57:33.211Z,98.07
2023-01-06T10:00:02.730Z,98.21
2023-01-06T10:02:36.156Z,98.09
2023-01-06T10:05:04.583Z,97.94
2023-01-06T10:07:39.423Z,97.31
2023-01-06T10:10:17.499Z,97.09
2023-01-06T10:12:54.326Z,97.04
2023-01-06T10:15:27.807Z,97.02
2023-01-06T10:18:07.951Z,97.04
2023-01-06T10:20:52.956Z,97.00
2023-01-06T10:23:52.433Z,96.97
2023-01-06T10:26:28.458Z,96.92
2023-01-06T10:28:58.973Z,96.83
2023-01-06T10:31:33.029Z,96.76
2023-01-06T10:34:03.126Z,96.76
2023-01-06T10:36:33.034Z,96.73
2023-01-06T10:39:02.350Z,96.64
2023-01-06T10:41:41.459Z,96.57
2023-01-06T10:44:10.440Z,96.49
2023-01-06T10:46:38.882Z,96.46
2023-01-06T10:49:15.578Z,96.33
2023-01-06T10:51:45.666Z,96.22
2023-01-06T10:54:15.663Z,96.08
2023-01-06T10:56:46.790Z,96.03
2023-01-06T10:59:14.974Z,95.95
2023-01-06T11:01:51.030Z,95.91
2023-01-06T11:04:21.537Z,95.87
2023-01-06T11:06:55.004Z,95.79
2023-01-06T11:09:27.499Z,95.79
2023-01-06T11:11:57.116Z,95.71
2023-01-06T11:14:27.827Z,95.73
2023-01-06T11:16:58.417Z,95.70
2023-01-06T11:19:35.555Z,95.68
2023-01-06T11:22:04.247Z,95.66
2023-01-06T11:24:32.726Z,95.67
2023-01-06T11:27:03.709Z,95.69
2023-01-06T11:29:34.539Z,95.69
2023-01-06T11:32:05.174Z,95.77
2023-01-06T11:34:34.865Z,95.77
2023-01-06T11:37:03.302Z,95.77
2023-01-06T11:39:34.312Z,95.81
2023-01-06T11:42:13.292Z,95.79
2023-01-06T11:44:41.980Z,95.82
2023-01-06T11:47:14.201Z,95.81
2023-01-06T11:49:44.289Z,95.80
2023-01-06T11:52:21.836Z,95.80
2023-01-06T11:54:59.669Z,95.78
2023-01-06T11:57:32.285Z,95.70
2023-01-06T12:00:07.205Z,95.60
2023-01-06T12:02:42.853Z,95.48
2023-01-06T12:05:19.472Z,95.32
2023-01-06T12:07:49.424Z,95.12
2023-01-06T12:10:21.206Z,95.01
2023-01-06T12:12:49.742Z,94.90
2023-01-06T12:15:18.748Z,94.74
2023-01-06T12:17:51.186Z,94.58
2023-01-06T12:20:20.836Z,94.87
2023-01-06T12:22:50.640Z,94.92
2023-01-06T12:25:21.068Z,94.75
2023-01-06T12:27:53.268Z,94.42
2023-01-06T12:30:27.533Z,94.06
2023-01-06T12:32:57.713Z,93.80
2023-01-06T12:35:30.259Z,93.41
2023-01-06T12:38:02.055Z,93.28
2023-01-06T12:40:33.709Z,92.57
2023-01-06T12:43:06.037Z,91.97
2023-01-06T12:45:36.381Z,91.86
2023-01-06T12:48:08.637Z,91.69
2023-01-06T12:50:41.292Z,91.64
2023-01-06T12:53:20.231Z,91.46
2023-01-06T12:56:00.117Z,91.49
2023-01-06T12:58:36.187Z,91.29
2023-01-06T13:01:08.682Z,91.14
2023-01-06T13:03:53.988Z,90.81
2023-01-06T13:06:31.383Z,90.60
2023-01-06T13:09:10.296Z,90.43
2023-01-06T13:11:52.034Z,90.22
2023-01-06T13:14:25.349Z,89.98
2023-01-06T13:16:57.652Z,89.81
2023-01-06T13:19:30.432Z,89.69
2023-01-06T13:22:01.427Z,89.45
2023-01-06T13:24:57.229Z,89.30
2023-01-06T13:27:34.808Z,88.92
2023-01-06T13:30:13.780Z,88.75
2023-01-06T13:32:51.110Z,88.47
2023-01-06T13:35:33.423Z,88.06
2023-01-06T13:38:09.399Z,87.88
2023-01-06T13:40:39.644Z,87.58
2023-01-06T13:43:11.897Z,87.52
2023-01-06T13:45:42.238Z,87.21
2023-01-06T13:48:12.382Z,87.04
2023-01-06T13:50:40.628Z,86.92
2023-01-06T13:53:16.516Z,86.97
2023-01-06T13:55:44.660Z,86.74
2023-01-06T13:58:35.058Z,86.71
2023-01-06T14:01:07.875Z,86.59
2023-01-06T14:03:36.691Z,86.63
2023-01-06T14:06:05.277Z,86.65
2023-01-06T14:08:38.782Z,86.76
2023-01-06T14:11:21.215Z,87.29
2023-01-06T14:13:51.925Z,88.30
2023-01-06T14:16:20.181Z,88.93
2023-01-06T14:18:51.742Z,89.37
2023-01-06T14:21:24.635Z,89.84
2023-01-06T14:24:00.412Z,90.21
2023-01-06T14:26:58.300Z,90.59
2023-01-06T14:30:06.827Z,90.70
2023-01-06T14:33:11.600Z,90.85
2023-01-06T14:35:44.105Z,91.08
2023-01-06T14:40:54.304Z,91.31
2023-01-06T14:43:48.246Z,91.46
2023-01-06T14:46:19.253Z,91.46
2023-01-06T14:48:52.999Z,91.50
2023-01-06T14:51:23.188Z,91.51
2023-01-06T14:54:04.453Z,91.47
2023-01-06T14:56:34.530Z,91.54
2023-01-06T14:59:10.607Z,91.96
2023-01-06T15:01:42.594Z,92.08
2023-01-06T15:04:26.361Z,91.99
2023-01-06T15:07:03.484Z,91.81
2023-01-06T15:09:32.610Z,91.82
2023-01-06T15:12:04.781Z,91.47
2023-01-06T15:14:34.852Z,91.11
2023-01-06T15:17:06.340Z,90.95
2023-01-06T15:19:36.216Z,90.86
2023-01-06T15:22:08.805Z,90.81
2023-01-06T15:24:39.873Z,90.65
2023-01-06T15:27:13.070Z,90.76
2023-01-06T15:29:50.560Z,90.80
2023-01-06T15:32:23.855Z,90.87
2023-01-06T15:34:52.932Z,90.95
2023-01-06T15:37:25.320Z,91.01
2023-01-06T15:39:54.275Z,91.07
2023-01-06T15:42:29.526Z,91.09
2023-01-06T15:44:58.788Z,90.99
2023-01-06T15:47:36.173Z,90.97
2023-01-06T15:50:09.730Z,90.86
2023-01-06T15:52:40.910Z,90.83
2023-01-06T15:55:21.666Z,90.80
2023-01-06T15:57:56.838Z,90.84
2023-01-06T16:00:28.463Z,90.89
2023-01-06T16:02:56.888Z,90.87
2023-01-06T16:05:42.288Z,90.77
2023-01-06T16:08:21.349Z,90.57
2023-01-06T16:10:49.709Z,90.44
2023-01-06T16:13:35.282Z,90.36
2023-01-06T16:16:09.835Z,90.18
2023-01-06T16:18:38.862Z,90.09
2023-01-06T16:21:17.799Z,90.04
2023-01-06T16:23:54.254Z,90.02
2023-01-06T16:26:23.941Z,89.91
2023-01-06T16:28:55.073Z,90.01
2023-01-06T16:31:31.914Z,89.92
2023-01-06T16:34:16.885Z,89.93
2023-01-06T16:36:45.877Z,89.92
2023-01-06T16:39:15.590Z,89.95
2023-01-06T16:42:34.196Z,89.99
2023-01-06T16:45:10.079Z,90.00
2023-01-06T16:47:39.727Z,90.08
2023-01-06T16:50:22.714Z,90.21
2023-01-06T16:53:10.277Z,90.26
2023-01-06T16:55:40.142Z,90.35
2023-01-06T16:58:15.022Z,90.53
2023-01-06T17:00:51.236Z,90.66
2023-01-06T17:03:21.876Z,90.70
2023-01-06T17:05:52.116Z,90.79
2023-01-06T17:08:26.633Z,90.79
2023-01-06T17:10:54.958Z,90.81
2023-01-06T17:13:46.092Z,90.91
2023-01-06T17:16:18.136Z,90.98
2023-01-06T17:18:51.010Z,91.07
2023-01-06T17:21:21.216Z,91.14
2023-01-06T17:23:52.105Z,91.12
2023-01-06T17:26:22.600Z,91.10
2023-01-06T17:28:52.882Z,91.18
2023-01-06T17:31:30.131Z,91.34
2023-01-06T17:34:12.155Z,91.40
2023-01-06T17:36:42.276Z,91.46
2023-01-06T17:39:21.154Z,91.49
2023-01-06T17:41:49.408Z,91.53
2023-01-06T17:44:20.536Z,91.63
2023-01-06T17:46:50.893Z,91.77
2023-01-06T17:49:35.376Z,91.86
2023-01-06T17:52:19.584Z,91.89
2023-01-06T17:55:14.796Z,91.96
2023-01-06T17:57:47.208Z,92.12
2023-01-06T18:00:24.289Z,92.22
2023-01-06T18:02:58.367Z,92.26
2023-01-06T18:06:06.184Z,92.34
2023-01-06T18:08:36.776Z,92.31
2023-01-06T18:11:26.421Z,92.30
2023-01-06T18:13:54.786Z,92.40
2023-01-06T18:16:31.470Z,92.45
2023-01-06T18:19:07.824Z,92.37
2023-01-06T18:21:39.465Z,92.32
2023-01-06T18:24:16.516Z,92.27
2023-01-06T18:26:49.419Z,92.24
2023-01-06T18:29:20.747Z,92.30
2023-01-06T18:31:51.114Z,92.31
2023-01-06T18:34:42.307Z,92.31
2023-01-06T18:37:10.357Z,92.30
2023-01-06T18:39:40.945Z,92.45
2023-01-06T18:42:18.842Z,92.48
2023-01-06T18:44:47.749Z,92.44
2023-01-06T18:47:17.916Z,92.43
2023-01-06T18:49:47.824Z,92.35
2023-01-06T18:52:32.473Z,92.35
2023-01-06T18:55:01.147Z,92.27
2023-01-06T18:57:33.123Z,92.19
2023-01-06T19:00:14.059Z,92.14
2023-01-06T19:02:42.406Z,92.14
2023-01-06T19:05:13.459Z,92.15
2023-01-06T19:07:41.953Z,92.19
2023-01-06T19:10:26.764Z,92.16
2023-01-06T19:13:00.296Z,92.15
2023-01-06T19:15:28.564Z,92.18
2023-01-06T19:17:56.974Z,92.13
2023-01-06T19:20:29.037Z,92.18
2023-01-06T19:22:57.772Z,92.25
2023-01-06T19:25:31.431Z,92.32
2023-01-06T19:28:00.129Z,92.39
2023-01-06T19:30:35.354Z,92.46
2023-01-06T19:33:23.968Z,92.60
2023-01-06T19:36:00.073Z,92.74
2023-01-06T19:38:30.635Z,92.88
2023-01-06T19:41:03.275Z,93.00
2023-01-06T19:43:33.853Z,93.12
2023-01-06T19:46:03.982Z,93.19
2023-01-06T19:48:37.976Z,93.14
2023-01-06T19:51:21.988Z,93.15
2023-01-06T19:53:52.826Z,93.05
2023-01-06T19:56:24.049Z,93.04
2023-01-06T19:58:53.617Z,93.24
2023-01-06T20:01:23.421Z,93.15
2023-01-06T20:03:53.812Z,93.06
2023-01-06T20:06:23.619Z,92.99
2023-01-06T20:08:53.537Z,92.91
2023-01-06T20:11:23.059Z,92.87
2023-01-06T20:13:52.271Z,92.73
2023-01-06T20:16:20.438Z,92.54
2023-01-06T20:18:50.603Z,92.46
2023-01-06T20:21:18.696Z,92.31
2023-01-06T20:23:50.127Z,92.33
2023-01-06T20:26:18.217Z,92.24
2023-01-06T20:28:47.915Z,92.25
2023-01-06T20:31:15.990Z,92.29
2023-01-06T20:33:44.067Z,92.37
2023-01-06T20:36:16.812Z,92.30
2023-01-06T20:38:45.032Z,92.20
2023-01-06T20:41:15.796Z,92.14
2023-01-06T20:43:43.820Z,92.11
2023-01-06T20:46:13.012Z,92.06
2023-01-06T20:48:41.628Z,92.03
2023-01-06T20:51:11.628Z,92.08
2023-01-06T20:53:39.625Z,92.04
2023-01-06T20:56:12.099Z,92.02
2023-01-06T20:58:41.595Z,91.90
2023-01-06T21:01:09.712Z,91.90
2023-01-06T21:03:39.263Z,91.84
2023-01-06T21:06:08.843Z,91.85
2023-01-06T21:08:36.911Z,91.84
2023-01-06T21:11:05.242Z,91.81
2023-01-06T21:13:33.328Z,91.82
2023-01-06T21:16:07.449Z,91.82
2023-01-06T21:18:36.856Z,91.82
2023-01-06T21:21:05.755Z,91.91
2023-01-06T21:23:35.429Z,91.90
2023-01-06T21:26:03.468Z,91.91
2023-01-06T21:28:31.867Z,91.90
2023-01-06T21:31:00.017Z,91.82
2023-01-06T21:33:29.801Z,91.84
2023-01-06T21:35:59.413Z,91.86
2023-01-06T21:38:29.179Z,91.88
2023-01-06T21:41:23.772Z,91.87
2023-01-06T21:43:51.505Z,91.90
2023-01-06T21:46:19.707Z,91.98
2023-01-06T21:48:49.574Z,92.05
2023-01-06T21:51:18.621Z,92.21
2023-01-06T21:53:47.522Z,92.26
2023-01-06T21:56:17.325Z,92.33
2023-01-06T21:58:45.627Z,92.44
2023-01-06T22:01:14.186Z,92.53
2023-01-06T22:03:42.800Z,92.59
2023-01-06T22:06:16.281Z,92.61
2023-01-06T22:08:44.525Z,92.66
2023-01-06T22:11:13.208Z,92.65
2023-01-06T22:13:41.821Z,92.69
2023-01-06T22:16:10.319Z,92.78
2023-01-06T22:18:38.461Z,92.86
2023-01-06T22:21:08.441Z,92.90
2023-01-06T22:23:38.254Z,92.92
2023-01-06T22:26:08.750Z,92.97
2023-01-06T22:28:37.203Z,92.91
2023-01-06T22:31:05.650Z,92.93
2023-01-06T22:33:34.091Z,92.98
2023-01-06T22:36:04.153Z,92.90
2023-01-06T22:38:35.004Z,92.86
2023-01-06T22:41:04.948Z,92.79
2023-01-06T22:43:32.986Z,92.66
2023-01-06T22:46:03.585Z,92.54
2023-01-06T22:48:33.075Z,92.47
2023-01-06T22:51:03.578Z,92.44
2023-01-06T22:53:32.853Z,92.32
2023-01-06T22:56:02.991Z,92.30
2023-01-06T22:58:35.250Z,92.30
2023-01-06T23:01:03.550Z,92.26
2023-01-06T23:03:32.061Z,92.30
2023-01-06T23:06:01.962Z,92.26
2023-01-06T23:08:31.206Z,92.39
2023-01-06T23:11:02.259Z,92.46
2023-01-06T23:13:33.769Z,92.50
2023-01-06T23:16:03.527Z,92.55
2023-01-06T23:18:34.039Z,92.63
2023-01-06T23:21:03.582Z,92.75
2023-01-06T23:23:33.108Z,92.80
2023-01-06T23:26:04.993Z,92.87
2023-01-06T23:28:35.206Z,92.94
2023-01-06T23:31:05.141Z,93.02
2023-01-06T23:33:33.644Z,93.01
2023-01-06T23:36:03.066Z,93.04
2023-01-06T23:38:31.487Z,93.11
2023-01-06T23:41:03.743Z,93.16
2023-01-06T23:43:37.253Z,93.20
2023-01-06T23:46:07.544Z,93.32
2023-01-06T23:48:36.875Z,93.44
2023-01-06T23:51:06.152Z,93.47
2023-01-06T23:53:36.191Z,93.48
2023-01-06T23:56:06.608Z,93.53
2023-01-06T23:58:37.529Z,93.62
